INFORMACIÓN METAR y TAF
METAR FOR LEAM
ADDS - METARS form results

(0540 UTC 22 June 2021)
Data provider http://aviationweather.gov/metar/data/
 
METAR text: LEAM 220530Z VRB02KT CAVOK 17/15 Q1013
Conditions at: LEAM (ALMERIA AIRPORT , ES) observed 0530 UTC 22 June 2021
Temperature: 17.0°C (63°F)
Dewpoint: 15.0°C (59°F) [RH = 88%]
Pressure (altimeter): 29.91 inches Hg (1013.0 mb)
Winds: variable direction winds at 2 MPH (2 knots; 1.0 m/s)
Visibility: 6 or more miles (10+ km)
Ceiling: ceiling and visibility are OK
Clouds: unknown
Weather: no significant weather observed at this time

METAR text: LEAM 220500Z 04004KT CAVOK 17/15 Q1012
Conditions at: LEAM (ALMERIA AIRPORT , ES) observed 0500 UTC 22 June 2021
Temperature: 17.0°C (63°F)
Dewpoint: 15.0°C (59°F) [RH = 88%]
Pressure (altimeter): 29.88 inches Hg (1012.0 mb)
Winds: from the NE (40 degrees) at 5 MPH (4 knots; 2.1 m/s)
Visibility: 6 or more miles (10+ km)
Ceiling: ceiling and visibility are OK
Clouds: unknown
Weather: no significant weather observed at this time

Forecast for: LEAM (ALMERIA AIRPORT , ES)
Text: TAF LEAM 220500Z 2206/2306 VRB02KT CAVOK TX26/2213Z TN17/2305Z
Forecast period: 0600 to 0800 UTC 22 June 2021
Forecast type: FROM: standard forecast or significant change
Winds: variable direction winds at 2 MPH (2 knots; 1.0 m/s)
Visibility: 6 or more miles (10+ km)
Ceiling: unknown
Clouds: missing
Weather: no significant weather forecast for this period
Text: BECMG 2208/2210 22012KT
Forecast period: 0800 to 2000 UTC 22 June 2021
Forecast type: BECOMING: Conditions expected to become as follows by 1000 UTC 22 June 2021
Winds: from the SW (220 degrees) at 14 MPH (12 knots; 6.2 m/s)
Visibility: 6 or more miles (10+ km)
Ceiling: unknown
Clouds: missing
Weather: no significant weather forecast for this period
Text: BECMG 2220/2222 VRB02KT
Forecast period: 2000 UTC 22 June 2021 to 0600 UTC 23 June 2021
Forecast type: BECOMING: Conditions expected to become as follows by 2200 UTC 22 June 2021
Winds: variable direction winds at 2 MPH (2 knots; 1.0 m/s)
Visibility: 6 or more miles (10+ km)
Ceiling: unknown
Clouds: missing
Weather: no significant weather forecast for this period

 MAPA DE AEROPUERTO

 INFORMACIÓN DE PISTA
Pista 08 Longitud 10499 ft Ancho 148 ft
Elevación 26 ft Umbral desplazado 492 ft Rumbo de pista 73
Pista 26 Longitud 10499 ft Ancho 148 ft
Elevación 70 ft Umbral desplazado 0 ft Rumbo de pista 253

 FRECUANCIAS DEL AEROPUERTO
Tipo APP Nombre APP Frecuencia 118.35 MHZ
Tipo GND Nombre GND Frecuencia 121.7 MHZ
Tipo TWR Nombre TWR Frecuencia 118.35 MHZ

 RADIO AYUDAS DEL AEROPUERTO
Tipo NDB Nombre Almeria Frecuencia 284 KHZ
Tipo NDB Nombre Almeria Frecuencia 310 KHZ
Tipo VOR-DME Nombre Almeria Frecuencia 114100 KHZ



Powered by Virtual Airlines Manager [v2.6.2]